sensor_id;sensor_type;location;lat;lon;timestamp;P1;durP1;ratioP1;P2;durP2;ratioP2
48588;SDS011;34369;51.174;6.738;2023-03-01T00:00:21;49.73;;;46.93;;
48588;SDS011;34369;51.174;6.738;2023-03-01T00:02:55;50.77;;;47.87;;
48588;SDS011;34369;51.174;6.738;2023-03-01T00:05:29;46.53;;;43.80;;
48588;SDS011;34369;51.174;6.738;2023-03-01T00:08:04;49.17;;;46.40;;
48588;SDS011;34369;51.174;6.738;2023-03-01T00:10:43;44.67;;;41.97;;
48588;SDS011;34369;51.174;6.738;2023-03-01T00:13:17;48.97;;;46.17;;
48588;SDS011;34369;51.174;6.738;2023-03-01T00:15:51;48.00;;;45.20;;
48588;SDS011;34369;51.174;6.738;2023-03-01T00:18:27;49.33;;;46.43;;
48588;SDS011;34369;51.174;6.738;2023-03-01T00:21:06;48.43;;;45.73;;
48588;SDS011;34369;51.174;6.738;2023-03-01T00:23:42;51.35;;;48.55;;
48588;SDS011;34369;51.174;6.738;2023-03-01T00:26:21;49.93;;;47.10;;
48588;SDS011;34369;51.174;6.738;2023-03-01T00:28:57;49.23;;;46.43;;
48588;SDS011;34369;51.174;6.738;2023-03-01T00:31:33;48.20;;;45.50;;
48588;SDS011;34369;51.174;6.738;2023-03-01T00:34:10;48.85;;;46.05;;
48588;SDS011;34369;51.174;6.738;2023-03-01T00:36:42;47.87;;;45.17;;
48588;SDS011;34369;51.174;6.738;2023-03-01T00:39:18;48.05;;;45.22;;
48588;SDS011;34369;51.174;6.738;2023-03-01T00:42:00;49.85;;;46.95;;
48588;SDS011;34369;51.174;6.738;2023-03-01T00:44:34;48.83;;;45.77;;
48588;SDS011;34369;51.174;6.738;2023-03-01T00:47:10;49.87;;;47.07;;
48588;SDS011;34369;51.174;6.738;2023-03-01T00:49:44;48.73;;;45.97;;
48588;SDS011;34369;51.174;6.738;2023-03-01T00:52:18;47.90;;;45.20;;
48588;SDS011;34369;51.174;6.738;2023-03-01T00:54:52;47.87;;;45.07;;
48588;SDS011;34369;51.174;6.738;2023-03-01T00:57:29;47.97;;;45.00;;
48588;SDS011;34369;51.174;6.738;2023-03-01T01:00:05;48.78;;;45.97;;
48588;SDS011;34369;51.174;6.738;2023-03-01T01:02:41;46.83;;;44.07;;
48588;SDS011;34369;51.174;6.738;2023-03-01T01:05:18;48.42;;;45.65;;
48588;SDS011;34369;51.174;6.738;2023-03-01T01:07:52;48.33;;;45.63;;
48588;SDS011;34369;51.174;6.738;2023-03-01T01:10:25;50.10;;;47.20;;
48588;SDS011;34369;51.174;6.738;2023-03-01T01:13:01;50.07;;;47.23;;
48588;SDS011;34369;51.174;6.738;2023-03-01T01:15:35;46.25;;;43.63;;
48588;SDS011;34369;51.174;6.738;2023-03-01T01:18:11;49.45;;;46.65;;
48588;SDS011;34369;51.174;6.738;2023-03-01T01:20:45;51.17;;;48.27;;
48588;SDS011;34369;51.174;6.738;2023-03-01T01:23:23;50.47;;;47.33;;
48588;SDS011;34369;51.174;6.738;2023-03-01T01:25:57;49.07;;;46.20;;
48588;SDS011;34369;51.174;6.738;2023-03-01T01:28:39;48.30;;;45.60;;
48588;SDS011;34369;51.174;6.738;2023-03-01T01:31:15;49.67;;;46.87;;
48588;SDS011;34369;51.174;6.738;2023-03-01T01:33:53;49.77;;;46.97;;
48588;SDS011;34369;51.174;6.738;2023-03-01T01:36:27;48.93;;;46.13;;
48588;SDS011;34369;51.174;6.738;2023-03-01T01:39:01;49.53;;;46.77;;
48588;SDS011;34369;51.174;6.738;2023-03-01T01:41:35;47.67;;;44.97;;
48588;SDS011;34369;51.174;6.738;2023-03-01T01:44:17;49.90;;;47.10;;
48588;SDS011;34369;51.174;6.738;2023-03-01T01:46:55;49.97;;;47.23;;
48588;SDS011;34369;51.174;6.738;2023-03-01T01:49:33;50.43;;;47.70;;
48588;SDS011;34369;51.174;6.738;2023-03-01T01:52:13;48.53;;;45.83;;
48588;SDS011;34369;51.174;6.738;2023-03-01T01:54:53;53.00;;;50.10;;
48588;SDS011;34369;51.174;6.738;2023-03-01T01:57:33;48.33;;;45.53;;
48588;SDS011;34369;51.174;6.738;2023-03-01T02:00:15;51.37;;;48.47;;
48588;SDS011;34369;51.174;6.738;2023-03-01T02:02:54;52.27;;;49.27;;
48588;SDS011;34369;51.174;6.738;2023-03-01T02:05:34;49.57;;;46.83;;
48588;SDS011;34369;51.174;6.738;2023-03-01T02:08:17;50.60;;;47.70;;
48588;SDS011;34369;51.174;6.738;2023-03-01T02:10:52;50.28;;;47.42;;
48588;SDS011;34369;51.174;6.738;2023-03-01T02:13:30;49.87;;;47.07;;
48588;SDS011;34369;51.174;6.738;2023-03-01T02:18:46;48.80;;;46.10;;
48588;SDS011;34369;51.174;6.738;2023-03-01T02:21:32;50.28;;;47.47;;
48588;SDS011;34369;51.174;6.738;2023-03-01T02:24:20;50.70;;;47.83;;
48588;SDS011;34369;51.174;6.738;2023-03-01T02:27:05;49.63;;;46.83;;
48588;SDS011;34369;51.174;6.738;2023-03-01T02:29:43;51.00;;;48.13;;
48588;SDS011;34369;51.174;6.738;2023-03-01T02:32:21;51.43;;;48.67;;
48588;SDS011;34369;51.174;6.738;2023-03-01T02:34:55;51.03;;;48.25;;
48588;SDS011;34369;51.174;6.738;2023-03-01T02:37:29;51.50;;;48.60;;
48588;SDS011;34369;51.174;6.738;2023-03-01T02:40:05;47.20;;;44.60;;
48588;SDS011;34369;51.174;6.738;2023-03-01T02:42:45;47.70;;;45.00;;
48588;SDS011;34369;51.174;6.738;2023-03-01T02:45:26;50.37;;;47.30;;
48588;SDS011;34369;51.174;6.738;2023-03-01T02:47:59;51.95;;;48.92;;
48588;SDS011;34369;51.174;6.738;2023-03-01T02:53:39;49.27;;;46.57;;
48588;SDS011;34369;51.174;6.738;2023-03-01T02:56:27;49.83;;;47.07;;
48588;SDS011;34369;51.174;6.738;2023-03-01T02:59:03;50.40;;;47.60;;
48588;SDS011;34369;51.174;6.738;2023-03-01T03:01:38;52.67;;;49.40;;
48588;SDS011;34369;51.174;6.738;2023-03-01T03:04:15;51.10;;;48.20;;
48588;SDS011;34369;51.174;6.738;2023-03-01T03:06:51;50.28;;;47.47;;
48588;SDS011;34369;51.174;6.738;2023-03-01T03:09:25;48.67;;;45.93;;
48588;SDS011;34369;51.174;6.738;2023-03-01T03:11:58;50.10;;;47.30;;
48588;SDS011;34369;51.174;6.738;2023-03-01T03:14:32;50.03;;;47.13;;
48588;SDS011;34369;51.174;6.738;2023-03-01T03:17:10;50.13;;;47.28;;
48588;SDS011;34369;51.174;6.738;2023-03-01T03:19:44;51.90;;;49.00;;
48588;SDS011;34369;51.174;6.738;2023-03-01T03:22:18;50.53;;;47.73;;
48588;SDS011;34369;51.174;6.738;2023-03-01T03:24:52;50.67;;;47.53;;
48588;SDS011;34369;51.174;6.738;2023-03-01T03:27:28;50.50;;;47.60;;
48588;SDS011;34369;51.174;6.738;2023-03-01T03:30:05;47.43;;;44.73;;
48588;SDS011;34369;51.174;6.738;2023-03-01T03:32:45;50.10;;;47.20;;
48588;SDS011;34369;51.174;6.738;2023-03-01T03:35:23;52.07;;;49.10;;
48588;SDS011;34369;51.174;6.738;2023-03-01T03:38:01;48.83;;;46.03;;
48588;SDS011;34369;51.174;6.738;2023-03-01T03:40:47;51.73;;;48.93;;
48588;SDS011;34369;51.174;6.738;2023-03-01T03:43:24;51.37;;;48.57;;
48588;SDS011;34369;51.174;6.738;2023-03-01T03:45:58;52.53;;;49.53;;
48588;SDS011;34369;51.174;6.738;2023-03-01T03:48:38;49.37;;;46.37;;
48588;SDS011;34369;51.174;6.738;2023-03-01T03:51:16;52.23;;;49.13;;
48588;SDS011;34369;51.174;6.738;2023-03-01T03:53:53;50.53;;;47.73;;
48588;SDS011;34369;51.174;6.738;2023-03-01T03:56:28;51.60;;;48.53;;
48588;SDS011;34369;51.174;6.738;2023-03-01T03:59:03;51.95;;;49.15;;
48588;SDS011;34369;51.174;6.738;2023-03-01T04:01:37;49.63;;;46.83;;
48588;SDS011;34369;51.174;6.738;2023-03-01T04:04:13;53.10;;;50.00;;
48588;SDS011;34369;51.174;6.738;2023-03-01T04:06:49;53.07;;;50.00;;
48588;SDS011;34369;51.174;6.738;2023-03-01T04:09:22;49.43;;;46.63;;
48588;SDS011;34369;51.174;6.738;2023-03-01T04:11:57;52.37;;;49.40;;
48588;SDS011;34369;51.174;6.738;2023-03-01T04:14:31;47.80;;;45.10;;
48588;SDS011;34369;51.174;6.738;2023-03-01T04:17:05;49.33;;;46.53;;
48588;SDS011;34369;51.174;6.738;2023-03-01T04:19:41;51.57;;;48.73;;
48588;SDS011;34369;51.174;6.738;2023-03-01T04:22:19;50.10;;;47.30;;
48588;SDS011;34369;51.174;6.738;2023-03-01T04:24:53;50.97;;;47.77;;
48588;SDS011;34369;51.174;6.738;2023-03-01T04:27:27;51.17;;;48.37;;
48588;SDS011;34369;51.174;6.738;2023-03-01T04:30:06;52.80;;;49.90;;
48588;SDS011;34369;51.174;6.738;2023-03-01T04:32:40;50.70;;;47.77;;
48588;SDS011;34369;51.174;6.738;2023-03-01T04:35:16;48.80;;;46.00;;
48588;SDS011;34369;51.174;6.738;2023-03-01T04:37:49;51.47;;;48.60;;
48588;SDS011;34369;51.174;6.738;2023-03-01T04:40:22;52.63;;;49.63;;
48588;SDS011;34369;51.174;6.738;2023-03-01T04:42:55;52.40;;;49.17;;
48588;SDS011;34369;51.174;6.738;2023-03-01T04:45:27;52.73;;;49.73;;
48588;SDS011;34369;51.174;6.738;2023-03-01T04:48:00;49.83;;;46.93;;
48588;SDS011;34369;51.174;6.738;2023-03-01T04:50:35;51.73;;;48.80;;
48588;SDS011;34369;51.174;6.738;2023-03-01T04:53:07;51.00;;;48.10;;
48588;SDS011;34369;51.174;6.738;2023-03-01T04:55:43;50.60;;;47.70;;
48588;SDS011;34369;51.174;6.738;2023-03-01T04:58:16;51.67;;;48.87;;
48588;SDS011;34369;51.174;6.738;2023-03-01T05:00:49;49.70;;;46.90;;
48588;SDS011;34369;51.174;6.738;2023-03-01T05:03:21;50.00;;;47.23;;
48588;SDS011;34369;51.174;6.738;2023-03-01T05:05:58;50.60;;;47.70;;
48588;SDS011;34369;51.174;6.738;2023-03-01T05:08:31;49.78;;;46.97;;
48588;SDS011;34369;51.174;6.738;2023-03-01T05:11:05;47.93;;;45.13;;
48588;SDS011;34369;51.174;6.738;2023-03-01T05:13:40;50.97;;;48.07;;
48588;SDS011;34369;51.174;6.738;2023-03-01T05:16:13;48.50;;;45.73;;
48588;SDS011;34369;51.174;6.738;2023-03-01T05:18:47;52.70;;;49.90;;
48588;SDS011;34369;51.174;6.738;2023-03-01T05:21:22;51.17;;;48.37;;
48588;SDS011;34369;51.174;6.738;2023-03-01T05:23:55;51.63;;;48.77;;
48588;SDS011;34369;51.174;6.738;2023-03-01T05:26:28;51.03;;;48.07;;
48588;SDS011;34369;51.174;6.738;2023-03-01T05:29:01;51.73;;;48.83;;
48588;SDS011;34369;51.174;6.738;2023-03-01T05:31:36;50.80;;;47.67;;
48588;SDS011;34369;51.174;6.738;2023-03-01T05:34:09;51.60;;;48.60;;
48588;SDS011;34369;51.174;6.738;2023-03-01T05:36:44;51.90;;;48.90;;
48588;SDS011;34369;51.174;6.738;2023-03-01T05:39:16;50.33;;;47.43;;
48588;SDS011;34369;51.174;6.738;2023-03-01T05:41:51;54.17;;;51.17;;
48588;SDS011;34369;51.174;6.738;2023-03-01T05:44:25;51.60;;;48.67;;
48588;SDS011;34369;51.174;6.738;2023-03-01T05:47:00;52.40;;;49.40;;
48588;SDS011;34369;51.174;6.738;2023-03-01T05:49:32;53.37;;;50.37;;
48588;SDS011;34369;51.174;6.738;2023-03-01T05:52:07;54.07;;;50.37;;
48588;SDS011;34369;51.174;6.738;2023-03-01T05:54:45;51.40;;;48.43;;
48588;SDS011;34369;51.174;6.738;2023-03-01T05:57:19;53.57;;;50.57;;
48588;SDS011;34369;51.174;6.738;2023-03-01T05:59:56;53.63;;;50.63;;
48588;SDS011;34369;51.174;6.738;2023-03-01T06:02:33;51.90;;;48.90;;
48588;SDS011;34369;51.174;6.738;2023-03-01T06:05:10;50.38;;;47.42;;
48588;SDS011;34369;51.174;6.738;2023-03-01T06:07:50;52.63;;;49.53;;
48588;SDS011;34369;51.174;6.738;2023-03-01T06:10:26;52.47;;;49.50;;
48588;SDS011;34369;51.174;6.738;2023-03-01T06:15:39;53.73;;;50.73;;
48588;SDS011;34369;51.174;6.738;2023-03-01T06:20:52;53.20;;;50.30;;
48588;SDS011;34369;51.174;6.738;2023-03-01T06:23:34;53.20;;;50.20;;
48588;SDS011;34369;51.174;6.738;2023-03-01T06:26:07;51.07;;;47.97;;
48588;SDS011;34369;51.174;6.738;2023-03-01T06:28:39;52.37;;;49.40;;
48588;SDS011;34369;51.174;6.738;2023-03-01T06:31:11;53.00;;;50.00;;
48588;SDS011;34369;51.174;6.738;2023-03-01T06:33:43;55.00;;;51.90;;
48588;SDS011;34369;51.174;6.738;2023-03-01T06:36:15;51.47;;;48.47;;
48588;SDS011;34369;51.174;6.738;2023-03-01T06:38:50;50.80;;;47.90;;
48588;SDS011;34369;51.174;6.738;2023-03-01T06:41:21;53.83;;;50.73;;
48588;SDS011;34369;51.174;6.738;2023-03-01T06:43:53;52.50;;;49.60;;
48588;SDS011;34369;51.174;6.738;2023-03-01T06:46:25;52.47;;;49.37;;
48588;SDS011;34369;51.174;6.738;2023-03-01T06:48:57;53.40;;;50.40;;
48588;SDS011;34369;51.174;6.738;2023-03-01T06:51:29;50.50;;;47.60;;
48588;SDS011;34369;51.174;6.738;2023-03-01T06:54:02;52.27;;;49.27;;
48588;SDS011;34369;51.174;6.738;2023-03-01T06:56:35;54.03;;;50.87;;
48588;SDS011;34369;51.174;6.738;2023-03-01T06:59:07;53.63;;;50.23;;
48588;SDS011;34369;51.174;6.738;2023-03-01T07:01:39;52.13;;;49.10;;
48588;SDS011;34369;51.174;6.738;2023-03-01T07:04:11;49.47;;;46.60;;
48588;SDS011;34369;51.174;6.738;2023-03-01T07:06:43;50.53;;;47.60;;
48588;SDS011;34369;51.174;6.738;2023-03-01T07:09:16;50.37;;;47.43;;
48588;SDS011;34369;51.174;6.738;2023-03-01T07:11:50;48.27;;;45.47;;
48588;SDS011;34369;51.174;6.738;2023-03-01T07:14:22;51.00;;;47.77;;
48588;SDS011;34369;51.174;6.738;2023-03-01T07:16:55;51.20;;;48.20;;
48588;SDS011;34369;51.174;6.738;2023-03-01T07:19:27;48.20;;;45.13;;
48588;SDS011;34369;51.174;6.738;2023-03-01T07:21:59;49.77;;;46.57;;
48588;SDS011;34369;51.174;6.738;2023-03-01T07:24:33;48.33;;;45.33;;
48588;SDS011;34369;51.174;6.738;2023-03-01T07:27:05;45.00;;;41.97;;
48588;SDS011;34369;51.174;6.738;2023-03-01T07:29:36;44.90;;;41.97;;
48588;SDS011;34369;51.174;6.738;2023-03-01T07:32:08;43.07;;;40.17;;
48588;SDS011;34369;51.174;6.738;2023-03-01T07:34:42;43.83;;;40.83;;
48588;SDS011;34369;51.174;6.738;2023-03-01T07:37:14;44.00;;;41.00;;
48588;SDS011;34369;51.174;6.738;2023-03-01T07:39:48;45.60;;;42.30;;
48588;SDS011;34369;51.174;6.738;2023-03-01T07:42:19;45.07;;;42.03;;
48588;SDS011;34369;51.174;6.738;2023-03-01T07:44:51;43.33;;;40.23;;
48588;SDS011;34369;51.174;6.738;2023-03-01T07:47:23;43.60;;;40.57;;
48588;SDS011;34369;51.174;6.738;2023-03-01T07:49:58;43.33;;;40.33;;
48588;SDS011;34369;51.174;6.738;2023-03-01T07:52:31;43.77;;;40.90;;
48588;SDS011;34369;51.174;6.738;2023-03-01T07:55:05;41.60;;;38.53;;
48588;SDS011;34369;51.174;6.738;2023-03-01T07:57:38;43.10;;;40.07;;
48588;SDS011;34369;51.174;6.738;2023-03-01T08:00:11;42.00;;;39.00;;
48588;SDS011;34369;51.174;6.738;2023-03-01T08:02:44;41.90;;;39.07;;
48588;SDS011;34369;51.174;6.738;2023-03-01T08:05:16;40.80;;;38.00;;
48588;SDS011;34369;51.174;6.738;2023-03-01T08:07:48;40.07;;;37.37;;
48588;SDS011;34369;51.174;6.738;2023-03-01T08:10:21;40.20;;;37.40;;
48588;SDS011;34369;51.174;6.738;2023-03-01T08:12:53;39.40;;;36.60;;
48588;SDS011;34369;51.174;6.738;2023-03-01T08:15:25;38.47;;;35.57;;
48588;SDS011;34369;51.174;6.738;2023-03-01T08:17:56;38.33;;;35.70;;
48588;SDS011;34369;51.174;6.738;2023-03-01T08:20:28;38.47;;;35.63;;
48588;SDS011;34369;51.174;6.738;2023-03-01T08:23:00;40.38;;;37.03;;
48588;SDS011;34369;51.174;6.738;2023-03-01T08:25:33;38.17;;;35.40;;
48588;SDS011;34369;51.174;6.738;2023-03-01T08:28:05;36.05;;;33.45;;
48588;SDS011;34369;51.174;6.738;2023-03-01T08:30:37;38.53;;;35.75;;
48588;SDS011;34369;51.174;6.738;2023-03-01T08:33:09;36.53;;;33.83;;
48588;SDS011;34369;51.174;6.738;2023-03-01T08:35:41;36.28;;;33.55;;
48588;SDS011;34369;51.174;6.738;2023-03-01T08:38:12;37.28;;;34.58;;
48588;SDS011;34369;51.174;6.738;2023-03-01T08:40:46;37.17;;;34.38;;
48588;SDS011;34369;51.174;6.738;2023-03-01T08:43:18;37.88;;;35.17;;
48588;SDS011;34369;51.174;6.738;2023-03-01T08:45:49;38.17;;;35.38;;
48588;SDS011;34369;51.174;6.738;2023-03-01T08:48:21;36.00;;;33.40;;
48588;SDS011;34369;51.174;6.738;2023-03-01T08:50:53;36.30;;;33.60;;
48588;SDS011;34369;51.174;6.738;2023-03-01T08:53:25;36.30;;;33.70;;
48588;SDS011;34369;51.174;6.738;2023-03-01T08:56:00;36.17;;;33.40;;
48588;SDS011;34369;51.174;6.738;2023-03-01T08:58:32;35.85;;;33.25;;
48588;SDS011;34369;51.174;6.738;2023-03-01T09:01:06;35.38;;;32.75;;
48588;SDS011;34369;51.174;6.738;2023-03-01T09:03:39;34.08;;;31.58;;
48588;SDS011;34369;51.174;6.738;2023-03-01T09:06:11;33.75;;;31.20;;
48588;SDS011;34369;51.174;6.738;2023-03-01T09:08:44;31.98;;;29.58;;
48588;SDS011;34369;51.174;6.738;2023-03-01T09:11:20;33.15;;;30.65;;
48588;SDS011;34369;51.174;6.738;2023-03-01T09:13:53;31.10;;;28.63;;
48588;SDS011;34369;51.174;6.738;2023-03-01T09:16:25;31.92;;;29.45;;
48588;SDS011;34369;51.174;6.738;2023-03-01T09:18:59;31.70;;;29.30;;
48588;SDS011;34369;51.174;6.738;2023-03-01T09:21:31;31.63;;;29.17;;
48588;SDS011;34369;51.174;6.738;2023-03-01T09:24:03;32.13;;;29.63;;
48588;SDS011;34369;51.174;6.738;2023-03-01T09:26:38;33.35;;;30.65;;
48588;SDS011;34369;51.174;6.738;2023-03-01T09:29:09;33.97;;;31.48;;
48588;SDS011;34369;51.174;6.738;2023-03-01T09:31:41;33.58;;;30.98;;
48588;SDS011;34369;51.174;6.738;2023-03-01T09:34:14;34.08;;;31.42;;
48588;SDS011;34369;51.174;6.738;2023-03-01T09:36:49;34.67;;;31.92;;
48588;SDS011;34369;51.174;6.738;2023-03-01T09:39:21;35.63;;;32.95;;
48588;SDS011;34369;51.174;6.738;2023-03-01T09:41:57;34.58;;;31.95;;
48588;SDS011;34369;51.174;6.738;2023-03-01T09:44:34;37.15;;;34.10;;
48588;SDS011;34369;51.174;6.738;2023-03-01T09:47:16;36.42;;;33.40;;
48588;SDS011;34369;51.174;6.738;2023-03-01T09:49:52;35.08;;;32.58;;
48588;SDS011;34369;51.174;6.738;2023-03-01T09:52:34;35.17;;;32.50;;
48588;SDS011;34369;51.174;6.738;2023-03-01T09:55:12;35.38;;;32.78;;
48588;SDS011;34369;51.174;6.738;2023-03-01T09:57:50;34.50;;;32.00;;
48588;SDS011;34369;51.174;6.738;2023-03-01T10:00:30;34.10;;;31.70;;
48588;SDS011;34369;51.174;6.738;2023-03-01T10:03:12;35.17;;;32.60;;
48588;SDS011;34369;51.174;6.738;2023-03-01T10:05:50;35.40;;;32.88;;
48588;SDS011;34369;51.174;6.738;2023-03-01T10:08:33;33.30;;;30.90;;
48588;SDS011;34369;51.174;6.738;2023-03-01T10:11:17;35.22;;;32.53;;
48588;SDS011;34369;51.174;6.738;2023-03-01T10:13:56;33.97;;;31.52;;
48588;SDS011;34369;51.174;6.738;2023-03-01T10:16:35;33.72;;;31.13;;
48588;SDS011;34369;51.174;6.738;2023-03-01T10:19:20;34.10;;;31.60;;
48588;SDS011;34369;51.174;6.738;2023-03-01T10:21:57;34.83;;;32.08;;
48588;SDS011;34369;51.174;6.738;2023-03-01T10:24:34;35.65;;;32.97;;
48588;SDS011;34369;51.174;6.738;2023-03-01T10:27:07;33.22;;;30.83;;
48588;SDS011;34369;51.174;6.738;2023-03-01T10:29:46;34.55;;;31.88;;
48588;SDS011;34369;51.174;6.738;2023-03-01T10:32:23;34.55;;;31.95;;
48588;SDS011;34369;51.174;6.738;2023-03-01T10:34:56;34.60;;;32.10;;
48588;SDS011;34369;51.174;6.738;2023-03-01T10:37:28;35.75;;;33.13;;
48588;SDS011;34369;51.174;6.738;2023-03-01T10:40:01;36.13;;;33.43;;
48588;SDS011;34369;51.174;6.738;2023-03-01T10:42:38;36.93;;;33.97;;
48588;SDS011;34369;51.174;6.738;2023-03-01T10:45:26;36.10;;;33.40;;
48588;SDS011;34369;51.174;6.738;2023-03-01T10:48:05;35.73;;;33.03;;
48588;SDS011;34369;51.174;6.738;2023-03-01T10:50:45;36.43;;;33.83;;
48588;SDS011;34369;51.174;6.738;2023-03-01T10:53:22;36.40;;;33.47;;
48588;SDS011;34369;51.174;6.738;2023-03-01T10:55:59;36.23;;;33.73;;
48588;SDS011;34369;51.174;6.738;2023-03-01T10:58:35;35.80;;;33.28;;
48588;SDS011;34369;51.174;6.738;2023-03-01T11:04:25;35.03;;;32.50;;
48588;SDS011;34369;51.174;6.738;2023-03-01T11:07:30;34.20;;;31.67;;
48588;SDS011;34369;51.174;6.738;2023-03-01T11:11:08;34.37;;;31.87;;
48588;SDS011;34369;51.174;6.738;2023-03-01T11:15:25;35.33;;;32.70;;
48588;SDS011;34369;51.174;6.738;2023-03-01T11:30:20;32.25;;;29.85;;
48588;SDS011;34369;51.174;6.738;2023-03-01T11:33:53;33.35;;;30.85;;
48588;SDS011;34369;51.174;6.738;2023-03-01T11:37:14;33.20;;;30.80;;
48588;SDS011;34369;51.174;6.738;2023-03-01T11:40:55;32.30;;;29.83;;
48588;SDS011;34369;51.174;6.738;2023-03-01T11:47:55;34.70;;;32.10;;
48588;SDS011;34369;51.174;6.738;2023-03-01T11:51:51;34.00;;;31.53;;
48588;SDS011;34369;51.174;6.738;2023-03-01T11:55:11;34.25;;;31.70;;
48588;SDS011;34369;51.174;6.738;2023-03-01T12:22:14;32.78;;;30.42;;
48588;SDS011;34369;51.174;6.738;2023-03-01T12:25:34;32.97;;;30.58;;
48588;SDS011;34369;51.174;6.738;2023-03-01T12:28:45;31.75;;;29.27;;
48588;SDS011;34369;51.174;6.738;2023-03-01T12:32:29;32.35;;;29.95;;
48588;SDS011;34369;51.174;6.738;2023-03-01T12:36:23;31.10;;;28.80;;
48588;SDS011;34369;51.174;6.738;2023-03-01T12:40:37;30.25;;;27.80;;
48588;SDS011;34369;51.174;6.738;2023-03-01T12:44:49;29.70;;;27.50;;
48588;SDS011;34369;51.174;6.738;2023-03-01T12:48:49;30.05;;;27.85;;
48588;SDS011;34369;51.174;6.738;2023-03-01T12:59:38;29.20;;;27.10;;
48588;SDS011;34369;51.174;6.738;2023-03-01T13:02:59;29.35;;;27.02;;
48588;SDS011;34369;51.174;6.738;2023-03-01T13:06:32;29.00;;;26.63;;
48588;SDS011;34369;51.174;6.738;2023-03-01T13:09:59;26.85;;;24.95;;
48588;SDS011;34369;51.174;6.738;2023-03-01T13:13:28;27.77;;;25.67;;
48588;SDS011;34369;51.174;6.738;2023-03-01T13:16:58;27.05;;;24.98;;
48588;SDS011;34369;51.174;6.738;2023-03-01T13:20:33;26.52;;;24.52;;
48588;SDS011;34369;51.174;6.738;2023-03-01T13:28:32;24.88;;;22.98;;
48588;SDS011;34369;51.174;6.738;2023-03-01T13:32:33;25.33;;;23.33;;
48588;SDS011;34369;51.174;6.738;2023-03-01T13:39:56;24.42;;;22.58;;
48588;SDS011;34369;51.174;6.738;2023-03-01T13:46:43;24.25;;;22.35;;
48588;SDS011;34369;51.174;6.738;2023-03-01T13:53:28;25.23;;;23.25;;
48588;SDS011;34369;51.174;6.738;2023-03-01T13:57:12;24.67;;;22.67;;
48588;SDS011;34369;51.174;6.738;2023-03-01T14:00:34;24.65;;;22.65;;
48588;SDS011;34369;51.174;6.738;2023-03-01T14:03:33;24.42;;;22.42;;
48588;SDS011;34369;51.174;6.738;2023-03-01T14:06:41;25.00;;;23.10;;
48588;SDS011;34369;51.174;6.738;2023-03-01T14:09:29;25.65;;;23.55;;
48588;SDS011;34369;51.174;6.738;2023-03-01T14:13:02;25.00;;;23.00;;
48588;SDS011;34369;51.174;6.738;2023-03-01T14:24:22;25.90;;;23.83;;
48588;SDS011;34369;51.174;6.738;2023-03-01T14:27:19;25.52;;;23.52;;
48588;SDS011;34369;51.174;6.738;2023-03-01T14:30:49;26.25;;;24.27;;
48588;SDS011;34369;51.174;6.738;2023-03-01T14:34:45;26.60;;;24.50;;
48588;SDS011;34369;51.174;6.738;2023-03-01T14:38:38;26.77;;;24.77;;
48588;SDS011;34369;51.174;6.738;2023-03-01T14:42:04;27.33;;;25.15;;
48588;SDS011;34369;51.174;6.738;2023-03-01T14:45:10;28.00;;;25.75;;
48588;SDS011;34369;51.174;6.738;2023-03-01T14:48:39;29.00;;;26.80;;
48588;SDS011;34369;51.174;6.738;2023-03-01T14:51:48;29.17;;;26.92;;
48588;SDS011;34369;51.174;6.738;2023-03-01T14:55:05;28.58;;;26.42;;
48588;SDS011;34369;51.174;6.738;2023-03-01T14:58:43;28.98;;;26.77;;
48588;SDS011;34369;51.174;6.738;2023-03-01T15:09:16;28.85;;;26.75;;
48588;SDS011;34369;51.174;6.738;2023-03-01T15:19:58;30.35;;;28.20;;
48588;SDS011;34369;51.174;6.738;2023-03-01T15:26:27;30.88;;;28.65;;
48588;SDS011;34369;51.174;6.738;2023-03-01T15:30:02;31.02;;;28.83;;
48588;SDS011;34369;51.174;6.738;2023-03-01T15:37:00;31.30;;;29.10;;
48588;SDS011;34369;51.174;6.738;2023-03-01T15:39:57;32.42;;;30.13;;
48588;SDS011;34369;51.174;6.738;2023-03-01T15:46:48;33.07;;;30.63;;
48588;SDS011;34369;51.174;6.738;2023-03-01T15:57:59;33.17;;;30.87;;
48588;SDS011;34369;51.174;6.738;2023-03-01T16:01:11;33.10;;;30.80;;
48588;SDS011;34369;51.174;6.738;2023-03-01T16:04:21;35.40;;;32.93;;
48588;SDS011;34369;51.174;6.738;2023-03-01T16:07:11;34.10;;;31.60;;
48588;SDS011;34369;51.174;6.738;2023-03-01T16:17:41;35.67;;;33.27;;
48588;SDS011;34369;51.174;6.738;2023-03-01T16:20:52;35.07;;;32.67;;
48588;SDS011;34369;51.174;6.738;2023-03-01T16:24:46;33.30;;;31.00;;
48588;SDS011;34369;51.174;6.738;2023-03-01T16:27:58;35.47;;;33.07;;
48588;SDS011;34369;51.174;6.738;2023-03-01T16:34:53;37.17;;;34.70;;
48588;SDS011;34369;51.174;6.738;2023-03-01T16:38:08;35.63;;;33.13;;
48588;SDS011;34369;51.174;6.738;2023-03-01T16:41:13;37.67;;;35.17;;
48588;SDS011;34369;51.174;6.738;2023-03-01T16:45:13;36.67;;;34.17;;
48588;SDS011;34369;51.174;6.738;2023-03-01T16:52:25;38.27;;;35.83;;
48588;SDS011;34369;51.174;6.738;2023-03-01T16:55:31;38.90;;;36.33;;
48588;SDS011;34369;51.174;6.738;2023-03-01T16:58:55;37.30;;;34.90;;
48588;SDS011;34369;51.174;6.738;2023-03-01T17:02:25;37.90;;;35.30;;
48588;SDS011;34369;51.174;6.738;2023-03-01T17:12:47;38.23;;;35.73;;
48588;SDS011;34369;51.174;6.738;2023-03-01T17:15:48;38.63;;;36.00;;
48588;SDS011;34369;51.174;6.738;2023-03-01T17:19:06;38.10;;;35.53;;
48588;SDS011;34369;51.174;6.738;2023-03-01T17:26:29;40.53;;;37.85;;
48588;SDS011;34369;51.174;6.738;2023-03-01T17:33:26;36.77;;;34.30;;
48588;SDS011;34369;51.174;6.738;2023-03-01T17:37:09;40.70;;;37.90;;
48588;SDS011;34369;51.174;6.738;2023-03-01T17:44:25;41.17;;;38.67;;
48588;SDS011;34369;51.174;6.738;2023-03-01T17:47:26;40.17;;;37.57;;
48588;SDS011;34369;51.174;6.738;2023-03-01T17:50:05;40.27;;;37.70;;
48588;SDS011;34369;51.174;6.738;2023-03-01T17:53:06;40.17;;;37.57;;
48588;SDS011;34369;51.174;6.738;2023-03-01T17:55:44;41.93;;;39.33;;
48588;SDS011;34369;51.174;6.738;2023-03-01T17:58:25;41.17;;;38.43;;
48588;SDS011;34369;51.174;6.738;2023-03-01T18:01:07;39.77;;;37.17;;
48588;SDS011;34369;51.174;6.738;2023-03-01T18:03:44;42.63;;;39.83;;
48588;SDS011;34369;51.174;6.738;2023-03-01T18:06:18;42.20;;;39.40;;
48588;SDS011;34369;51.174;6.738;2023-03-01T18:09:11;41.03;;;38.33;;
48588;SDS011;34369;51.174;6.738;2023-03-01T18:11:51;39.37;;;36.77;;
48588;SDS011;34369;51.174;6.738;2023-03-01T18:14:29;42.17;;;39.47;;
48588;SDS011;34369;51.174;6.738;2023-03-01T18:17:07;40.13;;;37.23;;
48588;SDS011;34369;51.174;6.738;2023-03-01T18:19:43;41.63;;;38.93;;
48588;SDS011;34369;51.174;6.738;2023-03-01T18:22:19;41.80;;;38.90;;
48588;SDS011;34369;51.174;6.738;2023-03-01T18:24:53;42.07;;;39.37;;
48588;SDS011;34369;51.174;6.738;2023-03-01T18:27:29;41.75;;;38.97;;
48588;SDS011;34369;51.174;6.738;2023-03-01T18:30:07;41.37;;;38.67;;
48588;SDS011;34369;51.174;6.738;2023-03-01T18:32:51;40.10;;;37.33;;
48588;SDS011;34369;51.174;6.738;2023-03-01T18:35:27;41.93;;;39.20;;
48588;SDS011;34369;51.174;6.738;2023-03-01T18:38:03;40.73;;;37.93;;
48588;SDS011;34369;51.174;6.738;2023-03-01T18:40:37;39.53;;;36.93;;
48588;SDS011;34369;51.174;6.738;2023-03-01T18:43:22;41.93;;;39.23;;